createdAt,value
2022-09-25T00:55:49.397Z,48.30
2022-09-25T00:58:20.354Z,48.53
2022-09-25T01:00:48.153Z,48.52
2022-09-25T01:03:16.072Z,48.73
2022-09-25T01:05:44.326Z,48.44
2022-09-25T01:08:13.760Z,48.51
2022-09-25T01:10:42.092Z,48.59
2022-09-25T01:13:09.913Z,48.64
2022-09-25T01:15:40.773Z,48.81
2022-09-25T01:18:16.057Z,48.91
2022-09-25T01:21:06.246Z,48.83
2022-09-25T01:23:56.881Z,48.72
2022-09-25T01:26:35.533Z,48.73
2022-09-25T01:29:07.931Z,49.02
2022-09-25T01:31:36.585Z,48.95
2022-09-25T01:34:10.240Z,48.91
2022-09-25T01:36:39.803Z,48.98
2022-09-25T01:39:10.633Z,49.00
2022-09-25T01:41:41.517Z,49.17
2022-09-25T01:44:13.656Z,48.90
2022-09-25T01:46:43.787Z,48.98
2022-09-25T01:49:15.281Z,48.92
2022-09-25T01:51:44.901Z,48.95
2022-09-25T01:54:14.157Z,49.27
2022-09-25T01:56:44.197Z,49.31
2022-09-25T01:59:15.212Z,49.17
2022-09-25T02:01:44.065Z,49.35
2022-09-25T02:04:13.839Z,49.29
2022-09-25T02:06:42.271Z,49.33
2022-09-25T02:09:11.479Z,49.35
2022-09-25T02:11:40.945Z,49.46
2022-09-25T02:14:10.254Z,49.58
2022-09-25T02:16:43.592Z,49.52
2022-09-25T02:19:29.280Z,49.44
2022-09-25T02:22:00.281Z,49.55
2022-09-25T02:24:30.445Z,49.31
2022-09-25T02:26:58.329Z,49.44
2022-09-25T02:29:26.311Z,49.59
2022-09-25T02:31:57.056Z,49.65
2022-09-25T02:34:24.980Z,49.41
2022-09-25T02:36:52.879Z,49.60
2022-09-25T02:39:22.568Z,49.60
2022-09-25T02:42:02.632Z,49.62
2022-09-25T02:44:34.662Z,49.57
2022-09-25T02:47:14.237Z,49.70
2022-09-25T02:49:46.416Z,49.29
2022-09-25T02:52:15.778Z,49.49
2022-09-25T02:54:46.814Z,49.69
2022-09-25T02:57:17.190Z,49.63
2022-09-25T02:59:46.939Z,49.79
2022-09-25T03:02:16.280Z,49.75
2022-09-25T03:04:44.308Z,49.88
2022-09-25T03:07:12.210Z,49.84
2022-09-25T03:09:39.080Z,49.88
2022-09-25T03:12:07.136Z,49.80
2022-09-25T03:14:35.035Z,49.88
2022-09-25T03:17:04.809Z,49.87
2022-09-25T03:19:34.895Z,49.90
2022-09-25T03:22:02.929Z,49.84
2022-09-25T03:24:31.411Z,49.75
2022-09-25T03:26:59.365Z,49.94
2022-09-25T03:29:27.379Z,49.96
2022-09-25T03:31:55.532Z,49.92
2022-09-25T03:34:23.430Z,49.93
2022-09-25T03:36:52.723Z,50.03
2022-09-25T03:39:20.625Z,49.96
2022-09-25T03:41:48.915Z,50.03
2022-09-25T03:44:16.805Z,49.92
2022-09-25T03:46:44.704Z,49.88
2022-09-25T03:49:12.876Z,49.98
2022-09-25T03:51:42.119Z,50.04
2022-09-25T03:54:11.547Z,49.95
2022-09-25T03:56:39.705Z,49.85
2022-09-25T03:59:07.668Z,49.85
2022-09-25T04:01:37.138Z,49.99
2022-09-25T04:04:05.125Z,49.98
2022-09-25T04:06:33.008Z,50.04
2022-09-25T04:09:00.900Z,49.88
2022-09-25T04:11:30.125Z,49.76
2022-09-25T04:13:58.070Z,49.96
2022-09-25T04:16:26.102Z,50.00
2022-09-25T04:18:54.057Z,50.10
2022-09-25T04:21:21.924Z,50.06
2022-09-25T04:24:03.743Z,50.12
2022-09-25T04:26:33.207Z,50.13
2022-09-25T04:29:01.647Z,50.13
2022-09-25T04:31:29.799Z,50.28
2022-09-25T04:33:56.784Z,50.06
2022-09-25T04:36:24.686Z,50.27
2022-09-25T04:38:52.636Z,50.21
2022-09-25T04:41:20.798Z,50.13
2022-09-25T04:43:50.134Z,50.34
2022-09-25T04:46:22.359Z,50.29
2022-09-25T04:48:50.855Z,50.21
2022-09-25T04:51:18.815Z,50.31
2022-09-25T04:53:47.326Z,50.26
2022-09-25T04:56:16.803Z,50.37
2022-09-25T04:58:46.150Z,50.31
2022-09-25T05:01:15.630Z,50.25
2022-09-25T05:03:43.945Z,50.25
2022-09-25T05:06:11.907Z,50.09
2022-09-25T05:08:39.825Z,50.18
2022-09-25T05:11:07.967Z,50.36
2022-09-25T05:13:35.862Z,50.34
2022-09-25T05:16:03.815Z,50.41
2022-09-25T05:21:04.302Z,50.37
2022-09-25T05:23:32.241Z,50.41
2022-09-25T05:26:02.575Z,50.35
2022-09-25T05:28:30.899Z,50.51
2022-09-25T05:31:00.186Z,50.59
2022-09-25T05:33:28.152Z,50.56
2022-09-25T05:36:00.993Z,50.56
2022-09-25T05:38:29.254Z,50.56
2022-09-25T05:40:57.325Z,50.64
2022-09-25T05:43:25.475Z,50.75
2022-09-25T05:45:56.303Z,50.72
2022-09-25T05:48:24.348Z,50.61
2022-09-25T05:50:53.291Z,50.44
2022-09-25T05:53:22.609Z,50.44
2022-09-25T05:55:51.650Z,50.45
2022-09-25T05:58:19.654Z,50.44
2022-09-25T06:00:47.705Z,50.35
2022-09-25T06:03:15.813Z,50.53
2022-09-25T06:05:46.169Z,50.57
2022-09-25T06:08:14.302Z,50.60
2022-09-25T06:10:45.081Z,50.73
2022-09-25T06:13:14.919Z,50.71
2022-09-25T06:15:42.889Z,50.70
2022-09-25T06:18:11.215Z,50.51
2022-09-25T06:20:39.101Z,50.76
2022-09-25T06:23:07.740Z,50.50
2022-09-25T06:25:36.513Z,50.55
2022-09-25T06:28:09.775Z,50.59
2022-09-25T06:30:38.405Z,50.68
2022-09-25T06:33:07.767Z,50.72
2022-09-25T06:35:35.708Z,50.75
2022-09-25T06:38:06.677Z,50.68
2022-09-25T06:40:34.867Z,50.87
2022-09-25T06:43:03.288Z,50.77
2022-09-25T06:45:34.941Z,50.87
2022-09-25T06:48:08.296Z,50.76
2022-09-25T06:50:40.721Z,50.93
2022-09-25T06:53:12.241Z,50.88
2022-09-25T06:55:40.259Z,50.85
2022-09-25T06:58:09.516Z,50.88
2022-09-25T07:00:38.885Z,50.89
2022-09-25T07:03:25.019Z,50.82
2022-09-25T07:05:53.003Z,50.73
2022-09-25T07:08:22.526Z,50.68
2022-09-25T07:10:51.224Z,50.78
2022-09-25T07:13:19.258Z,50.65
2022-09-25T07:15:53.774Z,50.62
2022-09-25T07:18:25.517Z,50.76
2022-09-25T07:20:53.987Z,50.70
2022-09-25T07:23:22.598Z,50.83
2022-09-25T07:25:50.485Z,50.79
2022-09-25T07:28:20.085Z,50.71
2022-09-25T07:30:48.258Z,50.77
2022-09-25T07:33:17.815Z,50.99
2022-09-25T07:35:45.937Z,50.90
2022-09-25T07:38:13.956Z,50.88
2022-09-25T07:40:42.007Z,50.79
2022-09-25T07:43:10.564Z,50.80
2022-09-25T07:45:38.785Z,50.73
2022-09-25T07:48:07.387Z,50.94
2022-09-25T07:50:36.706Z,50.98
2022-09-25T07:53:04.961Z,50.64
2022-09-25T07:55:32.962Z,50.74
2022-09-25T07:58:00.859Z,50.95
2022-09-25T08:00:31.802Z,50.75
2022-09-25T08:03:00.125Z,50.70
2022-09-25T08:05:28.844Z,50.89
2022-09-25T08:08:04.155Z,50.84
2022-09-25T08:10:32.674Z,50.77
2022-09-25T08:13:01.041Z,50.72
2022-09-25T08:15:29.146Z,50.90
2022-09-25T08:17:57.289Z,50.78
2022-09-25T08:20:25.158Z,50.94
2022-09-25T08:22:54.944Z,51.02
2022-09-25T08:25:24.353Z,50.75
2022-09-25T08:27:52.251Z,50.73
2022-09-25T08:30:20.317Z,50.92
2022-09-25T08:32:48.415Z,50.95
2022-09-25T08:35:16.462Z,50.67
2022-09-25T08:37:45.089Z,50.52
2022-09-25T08:40:17.807Z,50.74
2022-09-25T08:42:47.992Z,50.51
2022-09-25T08:45:42.053Z,50.63
2022-09-25T08:48:28.560Z,50.57
2022-09-25T08:50:56.444Z,50.32
2022-09-25T08:53:25.408Z,50.62
2022-09-25T08:56:10.566Z,50.44
2022-09-25T08:58:43.264Z,50.31
2022-09-25T09:01:14.240Z,50.36
2022-09-25T09:03:46.087Z,50.32
2022-09-25T09:06:15.523Z,50.14
2022-09-25T09:08:44.644Z,50.44
2022-09-25T09:11:13.982Z,50.30
2022-09-25T09:13:51.995Z,49.94
2022-09-25T09:16:24.856Z,50.23
2022-09-25T09:18:55.621Z,49.71
2022-09-25T09:21:26.631Z,50.12
2022-09-25T09:24:00.332Z,49.94
2022-09-25T09:26:37.669Z,49.79
2022-09-25T09:29:29.327Z,50.07
2022-09-25T09:32:01.779Z,49.95
2022-09-25T09:37:49.380Z,49.68
2022-09-25T09:40:22.363Z,50.28
2022-09-25T09:42:53.801Z,50.12
2022-09-25T09:45:26.106Z,49.97
2022-09-25T09:47:57.433Z,49.44
2022-09-25T09:50:32.710Z,49.43
2022-09-25T09:53:02.758Z,49.21
2022-09-25T09:55:36.556Z,48.50
2022-09-25T09:58:08.686Z,47.93
2022-09-25T10:00:39.119Z,47.85
2022-09-25T10:03:13.150Z,47.13
2022-09-25T10:05:43.967Z,47.03
2022-09-25T10:08:11.837Z,46.42
2022-09-25T10:10:40.721Z,45.92
2022-09-25T10:13:15.258Z,45.65
2022-09-25T10:15:48.342Z,45.36
2022-09-25T10:18:16.402Z,45.14
2022-09-25T10:20:45.866Z,44.99
2022-09-25T10:23:23.405Z,45.07
2022-09-25T10:25:55.745Z,44.74
2022-09-25T10:28:28.000Z,44.46
2022-09-25T10:30:58.215Z,44.55
2022-09-25T10:33:26.515Z,44.56
2022-09-25T10:35:55.128Z,44.41
2022-09-25T10:38:42.145Z,44.41
2022-09-25T10:41:12.236Z,44.63
2022-09-25T10:43:55.973Z,44.64
2022-09-25T10:46:43.802Z,44.99
2022-09-25T10:49:32.901Z,44.95
2022-09-25T10:52:06.451Z,44.81
2022-09-25T10:54:37.812Z,44.32
2022-09-25T10:57:18.254Z,44.22
2022-09-25T10:59:49.473Z,44.55
2022-09-25T11:02:28.406Z,44.94
2022-09-25T11:04:56.960Z,44.45
2022-09-25T11:07:27.880Z,43.73
2022-09-25T11:09:59.986Z,43.34
2022-09-25T11:12:29.931Z,43.10
2022-09-25T11:14:58.899Z,42.70
2022-09-25T11:17:33.445Z,42.48
2022-09-25T11:20:14.088Z,42.46
2022-09-25T11:22:42.289Z,42.40
2022-09-25T11:25:14.044Z,42.30
2022-09-25T11:27:43.414Z,42.07
2022-09-25T11:30:13.089Z,42.22
2022-09-25T11:32:51.706Z,42.02
2022-09-25T11:35:37.429Z,41.99
2022-09-25T11:38:11.576Z,41.60
2022-09-25T11:41:00.963Z,41.27
2022-09-25T11:43:37.564Z,41.60
2022-09-25T11:46:19.674Z,41.88
2022-09-25T11:48:54.506Z,42.00
2022-09-25T11:51:29.634Z,41.44
2022-09-25T11:54:25.345Z,41.25
2022-09-25T11:56:54.370Z,40.98
2022-09-25T11:59:28.902Z,40.88
2022-09-25T12:01:59.741Z,40.41
2022-09-25T12:04:56.084Z,39.67
2022-09-25T12:07:39.918Z,39.64
2022-09-25T12:10:25.092Z,39.62
2022-09-25T12:12:57.741Z,39.56
2022-09-25T12:15:27.772Z,39.78
2022-09-25T12:18:05.246Z,39.31
2022-09-25T12:20:38.757Z,39.41
2022-09-25T12:23:18.395Z,39.06
2022-09-25T12:25:53.148Z,38.80
2022-09-25T12:28:27.187Z,38.87
2022-09-25T12:31:02.244Z,38.96
2022-09-25T12:33:36.449Z,38.95
2022-09-25T12:36:09.164Z,39.01
2022-09-25T12:38:40.996Z,38.25
2022-09-25T12:41:10.931Z,38.58
2022-09-25T12:43:43.410Z,38.78
2022-09-25T12:46:15.252Z,39.07
2022-09-25T12:48:45.260Z,39.42
2022-09-25T12:51:21.793Z,39.61
2022-09-25T12:53:51.901Z,39.86
2022-09-25T12:56:22.817Z,39.76
2022-09-25T12:59:00.966Z,39.29
2022-09-25T13:01:33.743Z,39.30
2022-09-25T13:04:10.329Z,38.64
2022-09-25T13:06:43.596Z,38.90
2022-09-25T13:09:22.640Z,39.07
2022-09-25T13:11:52.618Z,39.14
2022-09-25T13:14:29.783Z,39.31
2022-09-25T13:16:58.351Z,39.21
2022-09-25T13:19:27.371Z,39.71
2022-09-25T13:22:03.732Z,39.64
2022-09-25T13:24:32.458Z,39.90
2022-09-25T13:27:03.392Z,39.72
2022-09-25T13:29:35.463Z,40.10
2022-09-25T13:32:04.843Z,39.98
2022-09-25T13:34:35.462Z,39.87
2022-09-25T13:37:05.427Z,40.09
2022-09-25T13:39:53.694Z,40.03
2022-09-25T13:42:27.210Z,40.13
2022-09-25T13:45:07.939Z,40.33
2022-09-25T13:47:57.334Z,39.95
2022-09-25T13:50:42.833Z,39.86
2022-09-25T13:53:34.994Z,40.10
2022-09-25T13:56:18.589Z,40.75
2022-09-25T13:59:26.507Z,39.67
2022-09-25T14:02:00.025Z,39.41
2022-09-25T14:04:33.122Z,39.33
2022-09-25T14:07:23.106Z,39.41
2022-09-25T14:09:54.771Z,39.02
2022-09-25T14:12:39.177Z,38.38
2022-09-25T14:15:08.601Z,37.89
2022-09-25T14:17:39.431Z,37.04
2022-09-25T14:20:11.197Z,36.68
2022-09-25T14:22:43.191Z,36.29
2022-09-25T14:25:28.327Z,36.15
2022-09-25T14:27:56.463Z,36.07
2022-09-25T14:30:29.126Z,35.85
2022-09-25T14:33:15.991Z,35.86
2022-09-25T14:35:47.752Z,36.39
2022-09-25T14:38:36.056Z,36.52
2022-09-25T14:41:30.764Z,37.02
2022-09-25T14:44:17.917Z,36.95
2022-09-25T14:46:46.146Z,37.22
2022-09-25T14:49:20.108Z,37.04
2022-09-25T14:51:48.898Z,37.24
2022-09-25T14:54:19.362Z,37.15
2022-09-25T14:56:50.274Z,36.90
2022-09-25T14:59:19.309Z,37.74
2022-09-25T15:01:48.260Z,38.33
2022-09-25T15:04:26.766Z,38.80
2022-09-25T15:07:00.626Z,37.88
2022-09-25T15:09:30.673Z,36.13
2022-09-25T15:12:00.589Z,35.91
2022-09-25T15:14:28.734Z,35.79
2022-09-25T15:17:14.356Z,35.47
2022-09-25T15:19:47.536Z,35.26
2022-09-25T15:22:18.712Z,35.07
2022-09-25T15:24:48.553Z,33.78
2022-09-25T15:27:18.275Z,33.53
2022-09-25T15:29:47.238Z,33.77
2022-09-25T15:32:18.448Z,34.03
2022-09-25T15:34:47.170Z,34.27
2022-09-25T15:37:21.061Z,34.62
2022-09-25T15:39:49.023Z,34.91
2022-09-25T15:42:18.333Z,35.19
2022-09-25T15:44:46.701Z,35.60
2022-09-25T15:47:52.058Z,35.53
2022-09-25T15:50:24.269Z,36.07
2022-09-25T15:52:52.689Z,36.09
2022-09-25T15:55:20.797Z,36.13
2022-09-25T15:57:50.556Z,36.25
2022-09-25T16:00:37.299Z,36.30
2022-09-25T16:03:24.474Z,36.28
2022-09-25T16:05:52.937Z,36.48
2022-09-25T16:08:29.419Z,36.73
2022-09-25T16:11:16.801Z,36.97
2022-09-25T16:13:48.776Z,37.25
2022-09-25T16:16:22.155Z,37.43
2022-09-25T16:18:51.233Z,37.49
2022-09-25T16:21:24.709Z,37.32
2022-09-25T16:23:56.243Z,37.70
2022-09-25T16:26:26.498Z,37.62
2022-09-25T16:29:05.056Z,37.77
2022-09-25T16:31:34.136Z,38.22
2022-09-25T16:34:02.178Z,38.34
2022-09-25T16:36:37.916Z,38.45
2022-09-25T16:39:21.744Z,38.33
2022-09-25T16:41:49.939Z,38.85
2022-09-25T16:44:20.390Z,38.73
2022-09-25T16:47:05.741Z,39.00
2022-09-25T16:49:34.269Z,39.32
2022-09-25T16:52:04.691Z,39.58
2022-09-25T16:54:32.787Z,39.52
2022-09-25T16:57:02.446Z,39.80
2022-09-25T16:59:32.147Z,39.58
2022-09-25T17:02:01.928Z,39.86
2022-09-25T17:04:31.727Z,39.86
2022-09-25T17:07:02.104Z,40.05
2022-09-25T17:09:31.428Z,40.01
2022-09-25T17:12:01.469Z,40.19
2022-09-25T17:14:29.765Z,40.38
2022-09-25T17:16:59.182Z,40.47
2022-09-25T17:19:27.121Z,40.30
2022-09-25T17:21:56.227Z,40.56
2022-09-25T17:24:25.111Z,40.43
2022-09-25T17:26:53.130Z,40.56
2022-09-25T17:29:21.558Z,40.68
2022-09-25T17:31:49.512Z,40.39
2022-09-25T17:34:21.096Z,40.41
2022-09-25T17:36:49.203Z,40.38
2022-09-25T17:39:17.127Z,40.76
2022-09-25T17:41:45.097Z,40.75
2022-09-25T17:44:14.000Z,40.60
2022-09-25T17:46:42.132Z,40.69
2022-09-25T17:49:11.294Z,40.38
2022-09-25T17:51:40.767Z,40.51
2022-09-25T17:54:09.061Z,40.70
2022-09-25T17:56:40.444Z,41.09
2022-09-25T17:59:09.172Z,40.76
2022-09-25T18:01:39.802Z,41.04
2022-09-25T18:04:18.203Z,40.99
2022-09-25T18:06:47.507Z,40.90
2022-09-25T18:09:15.457Z,41.19
2022-09-25T18:11:46.985Z,40.92
2022-09-25T18:14:15.683Z,40.85
2022-09-25T18:16:44.440Z,41.09
2022-09-25T18:19:33.148Z,40.74
2022-09-25T18:22:25.305Z,41.09
2022-09-25T18:24:56.425Z,41.21
2022-09-25T18:27:25.058Z,40.72
2022-09-25T18:29:52.989Z,40.84
2022-09-25T18:32:20.952Z,41.05
2022-09-25T18:34:48.875Z,41.07
2022-09-25T18:37:18.165Z,41.08
2022-09-25T18:39:47.920Z,41.62
2022-09-25T18:42:15.870Z,41.45
2022-09-25T18:44:43.863Z,41.97
2022-09-25T18:47:11.905Z,42.04
2022-09-25T18:49:40.158Z,42.28
2022-09-25T18:52:08.093Z,41.95
2022-09-25T18:54:37.405Z,42.29
2022-09-25T18:57:05.320Z,41.79
2022-09-25T18:59:33.520Z,41.94
2022-09-25T19:02:02.047Z,41.93
2022-09-25T19:04:30.197Z,41.90
2022-09-25T19:06:58.247Z,42.29
2022-09-25T19:09:27.776Z,42.29
2022-09-25T19:11:57.234Z,41.99
2022-09-25T19:14:25.331Z,42.32
2022-09-25T19:16:53.367Z,42.30
2022-09-25T19:19:21.317Z,42.67
2022-09-25T19:21:49.329Z,42.56
2022-09-25T19:24:18.316Z,42.98
2022-09-25T19:26:46.376Z,42.93
2022-09-25T19:29:15.845Z,42.83
2022-09-25T19:31:44.358Z,42.88
2022-09-25T19:34:12.504Z,43.21
2022-09-25T19:36:40.724Z,42.78
2022-09-25T19:39:08.797Z,43.11
2022-09-25T19:41:38.034Z,42.91
2022-09-25T19:44:12.752Z,43.07
2022-09-25T19:46:43.470Z,43.28
2022-09-25T19:49:11.549Z,42.96
2022-09-25T19:51:39.529Z,43.51
2022-09-25T19:54:07.641Z,43.52
2022-09-25T19:56:40.569Z,43.67
2022-09-25T19:59:09.163Z,44.12
2022-09-25T20:01:38.327Z,44.09
2022-09-25T20:04:08.597Z,44.41
2022-09-25T20:06:38.077Z,44.18
2022-09-25T20:09:06.772Z,44.37
2022-09-25T20:11:35.963Z,44.74
2022-09-25T20:14:05.044Z,44.60
2022-09-25T20:16:33.843Z,44.21
2022-09-25T20:19:02.989Z,44.62
2022-09-25T20:21:33.781Z,44.72
2022-09-25T20:24:02.508Z,44.80
2022-09-25T20:26:30.603Z,44.66
2022-09-25T20:28:59.324Z,44.99
2022-09-25T20:31:27.611Z,45.38
2022-09-25T20:33:55.772Z,45.63
2022-09-25T20:36:24.046Z,45.40
2022-09-25T20:38:53.554Z,45.71
2022-09-25T20:41:21.917Z,45.75
2022-09-25T20:43:50.305Z,45.66
2022-09-25T20:46:19.621Z,45.51
2022-09-25T20:48:48.493Z,45.89
2022-09-25T20:51:18.663Z,45.85
2022-09-25T20:53:50.724Z,46.00
2022-09-25T20:56:20.410Z,46.21
2022-09-25T20:58:52.870Z,46.29
2022-09-25T21:01:23.475Z,46.74
2022-09-25T21:03:51.694Z,46.61
2022-09-25T21:06:20.395Z,46.92
2022-09-25T21:08:48.608Z,46.82
2022-09-25T21:11:16.500Z,47.08
2022-09-25T21:13:45.781Z,46.76
2022-09-25T21:16:15.008Z,46.93
2022-09-25T21:18:43.503Z,47.42
2022-09-25T21:21:12.410Z,47.58
2022-09-25T21:23:40.545Z,47.85
2022-09-25T21:26:10.342Z,48.15
2022-09-25T21:28:39.119Z,48.33
2022-09-25T21:31:10.411Z,48.24
2022-09-25T21:33:38.425Z,48.37
2022-09-25T21:36:06.713Z,48.50
2022-09-25T21:38:37.259Z,48.45
2022-09-25T21:41:06.364Z,48.64
2022-09-25T21:43:35.097Z,49.05
2022-09-25T21:46:03.995Z,48.97
2022-09-25T21:48:35.052Z,49.09
2022-09-25T21:51:03.409Z,48.92
2022-09-25T21:53:35.648Z,49.25
2022-09-25T21:56:04.800Z,49.12
2022-09-25T21:58:32.957Z,49.34
2022-09-25T22:01:05.589Z,49.35
2022-09-25T22:03:35.384Z,49.69
2022-09-25T22:06:04.066Z,49.78
2022-09-25T22:08:32.089Z,49.59
2022-09-25T22:11:00.524Z,49.69
2022-09-25T22:13:29.237Z,49.57
2022-09-25T22:16:01.509Z,49.92
2022-09-25T22:18:29.557Z,50.06
2022-09-25T22:20:58.855Z,50.02
2022-09-25T22:23:26.858Z,50.11
2022-09-25T22:25:54.825Z,49.79
2022-09-25T22:28:22.788Z,49.90
2022-09-25T22:30:51.192Z,49.92
2022-09-25T22:33:19.137Z,49.89
2022-09-25T22:35:46.997Z,49.64
2022-09-25T22:38:16.316Z,50.29
2022-09-25T22:40:44.272Z,50.13
2022-09-25T22:43:12.301Z,50.10
2022-09-25T22:45:40.732Z,50.35
2022-09-25T22:48:09.138Z,50.71
2022-09-25T22:50:37.056Z,50.61
2022-09-25T22:53:05.052Z,50.72
2022-09-25T22:55:34.952Z,50.99
2022-09-25T22:58:08.634Z,51.36
2022-09-25T23:00:37.089Z,52.04
2022-09-25T23:03:05.071Z,52.31
2022-09-25T23:05:36.736Z,52.57
2022-09-25T23:08:04.901Z,52.58
2022-09-25T23:10:55.241Z,52.86
2022-09-25T23:13:23.056Z,52.93
2022-09-25T23:15:51.219Z,52.99
2022-09-25T23:18:19.102Z,52.54
2022-09-25T23:20:46.980Z,52.88
2022-09-25T23:23:15.185Z,52.88
2022-09-25T23:25:46.522Z,53.48
2022-09-25T23:28:14.554Z,53.65
2022-09-25T23:30:42.706Z,53.46
2022-09-25T23:33:10.645Z,53.41
2022-09-25T23:35:38.558Z,53.87
2022-09-25T23:38:06.454Z,53.78
2022-09-25T23:40:34.446Z,53.92
2022-09-25T23:43:04.091Z,54.39
2022-09-25T23:45:32.078Z,54.10
2022-09-25T23:48:00.049Z,54.37
2022-09-25T23:50:28.057Z,53.96
2022-09-25T23:52:56.017Z,53.91
2022-09-25T23:55:23.874Z,54.29
2022-09-25T23:57:51.806Z,54.40
